Time;durP1;ratioP1;P1;durP2;ratioP2;P2;SDS_P1;SDS_P2;PMS_P1;PMS_P2;Temp;Humidity;BMP_temperature;BMP_pressure;BME280_temperature;BME280_humidity;BME280_pressure;Samples;Min_cycle;Max_cycle;Signal;HPM_P1;HPM_P2
2022/07/17 00:00:09;;;;;;;5.50;3.97;;;16.50;99.90;;;;;;5022084;28;20663;-82
2022/07/17 00:02:36;;;;;;;3.50;3.20;;;16.50;99.90;;;;;;5019730;28;20662;-82
2022/07/17 00:05:02;;;;;;;3.50;3.00;;;16.50;99.90;;;;;;5020443;28;21228;-82
2022/07/17 00:07:29;;;;;;;3.50;3.20;;;16.40;99.90;;;;;;5020589;28;20633;-81
2022/07/17 00:09:56;;;;;;;4.23;3.93;;;16.40;99.90;;;;;;5018393;28;20673;-81
2022/07/17 00:12:23;;;;;;;3.47;3.17;;;16.30;99.90;;;;;;5017295;28;20619;-82
2022/07/17 00:14:51;;;;;;;2.70;2.50;;;16.30;99.90;;;;;;5019217;28;20619;-81
2022/07/17 00:17:19;;;;;;;3.70;3.40;;;16.30;99.90;;;;;;5023543;28;21093;-81
2022/07/17 00:19:46;;;;;;;3.60;3.30;;;16.20;99.90;;;;;;5023470;28;20691;-81
2022/07/17 00:22:13;;;;;;;3.10;2.77;;;16.10;99.90;;;;;;5018053;28;21032;-82
2022/07/17 00:24:40;;;;;;;2.90;2.70;;;16.10;99.90;;;;;;5014484;28;20635;-82
2022/07/17 00:27:07;;;;;;;3.47;2.73;;;16.10;99.90;;;;;;5026928;28;20622;-82
2022/07/17 00:29:34;;;;;;;3.30;3.00;;;16.10;99.90;;;;;;5021199;28;20664;-82
2022/07/17 00:32:01;;;;;;;6.77;4.40;;;16.10;99.90;;;;;;5018504;28;20635;-82
2022/07/17 00:34:29;;;;;;;4.00;3.10;;;16.00;99.90;;;;;;5025985;28;20699;-82
2022/07/17 00:36:56;;;;;;;2.90;2.70;;;16.00;99.90;;;;;;5022815;28;21209;-82
2022/07/17 00:39:23;;;;;;;4.50;3.57;;;15.90;99.90;;;;;;5022186;28;20637;-82
2022/07/17 00:41:50;;;;;;;3.33;3.00;;;15.90;99.90;;;;;;5024659;28;20683;-81
2022/07/17 00:44:17;;;;;;;2.90;2.70;;;15.80;99.90;;;;;;5022551;28;20630;-82
2022/07/17 00:46:44;;;;;;;3.13;2.87;;;15.80;99.90;;;;;;5029131;28;20634;-82
2022/07/17 00:49:10;;;;;;;3.20;3.00;;;15.70;99.90;;;;;;5027266;28;20989;-82
2022/07/17 00:51:39;;;;;;;3.87;2.87;;;15.70;99.90;;;;;;5023123;28;20635;-82
2022/07/17 00:54:07;;;;;;;3.07;2.83;;;15.70;99.90;;;;;;5027250;28;20649;-82
2022/07/17 00:56:35;;;;;;;4.67;3.70;;;15.60;99.90;;;;;;5025686;28;20627;-83
2022/07/17 00:59:03;;;;;;;3.40;3.10;;;15.50;99.90;;;;;;5025693;28;20635;-82
2022/07/17 01:01:31;;;;;;;4.30;3.40;;;15.50;99.90;;;;;;5029867;28;21018;-82
2022/07/17 01:03:58;;;;;;;4.63;4.30;;;15.50;99.90;;;;;;5023513;28;20635;-82
2022/07/17 01:06:25;;;;;;;4.30;3.90;;;15.40;99.90;;;;;;5029168;28;20990;-82
2022/07/17 01:08:53;;;;;;;5.07;3.80;;;15.30;99.90;;;;;;5028028;28;20622;-82
2022/07/17 01:11:21;;;;;;;6.30;3.63;;;15.30;99.90;;;;;;5029843;28;20658;-82
2022/07/17 01:13:48;;;;;;;3.83;3.30;;;15.30;99.90;;;;;;5027353;28;20619;-82
2022/07/17 01:16:15;;;;;;;4.20;3.80;;;15.20;99.90;;;;;;5027749;28;20634;-82
2022/07/17 01:18:42;;;;;;;3.70;3.20;;;15.20;99.90;;;;;;5027981;28;20638;-81
2022/07/17 01:21:10;;;;;;;3.00;2.80;;;15.20;99.90;;;;;;5029748;28;20652;-82
2022/07/17 01:23:37;;;;;;;3.97;3.60;;;15.20;99.90;;;;;;5021921;28;21018;-82
2022/07/17 01:26:04;;;;;;;3.43;3.13;;;15.20;99.90;;;;;;5028937;28;20637;-82
2022/07/17 01:28:31;;;;;;;4.17;3.77;;;15.20;99.90;;;;;;5029867;28;21002;-82
2022/07/17 01:30:58;;;;;;;3.30;3.10;;;15.30;99.90;;;;;;5029130;28;20658;-82
2022/07/17 01:33:25;;;;;;;2.80;2.60;;;15.30;99.90;;;;;;5023278;28;20631;-82
2022/07/17 01:35:53;;;;;;;2.83;2.63;;;15.20;99.90;;;;;;5027253;28;20637;-82
2022/07/17 01:38:21;;;;;;;3.00;2.80;;;15.20;99.90;;;;;;5022992;28;20709;-82
2022/07/17 01:40:48;;;;;;;4.77;2.80;;;15.20;99.90;;;;;;5027749;28;20662;-82
2022/07/17 01:43:14;;;;;;;2.60;2.50;;;15.20;99.90;;;;;;5031011;28;20658;-82
2022/07/17 01:45:41;;;;;;;2.33;2.13;;;15.20;99.90;;;;;;5028902;28;20615;-82
2022/07/17 01:48:08;;;;;;;4.50;2.57;;;15.20;99.90;;;;;;5023117;28;21188;-82
2022/07/17 01:50:35;;;;;;;2.53;2.33;;;15.10;99.90;;;;;;5016493;28;20754;-82
2022/07/17 01:53:02;;;;;;;2.60;2.40;;;15.10;99.90;;;;;;5028251;28;20623;-82
2022/07/17 01:55:30;;;;;;;2.83;2.40;;;15.00;99.90;;;;;;5027977;28;20981;-81
2022/07/17 01:57:57;;;;;;;2.50;2.30;;;15.00;99.90;;;;;;5026717;28;20631;-82
2022/07/17 02:00:25;;;;;;;2.90;2.70;;;14.80;99.90;;;;;;5029177;28;21417;-82
2022/07/17 02:02:52;;;;;;;3.67;3.00;;;14.80;99.90;;;;;;5028178;28;20757;-82
2022/07/17 02:05:19;;;;;;;3.23;2.80;;;14.80;99.90;;;;;;5028499;28;20634;-82
2022/07/17 02:07:46;;;;;;;3.57;3.27;;;14.90;99.90;;;;;;5023369;28;20637;-82
2022/07/17 02:10:14;;;;;;;3.50;3.30;;;14.90;99.90;;;;;;5028198;28;21217;-82
2022/07/17 02:12:43;;;;;;;4.87;3.93;;;14.90;99.90;;;;;;5024725;28;20634;-82
2022/07/17 02:15:11;;;;;;;3.47;3.17;;;14.70;99.90;;;;;;5026257;28;20709;-82
2022/07/17 02:17:37;;;;;;;3.27;3.07;;;14.70;99.90;;;;;;5025355;28;21013;-82
2022/07/17 02:20:06;;;;;;;3.73;3.07;;;14.70;99.90;;;;;;5028235;28;20658;-81
2022/07/17 02:22:33;;;;;;;4.10;3.37;;;14.70;99.90;;;;;;5026883;28;20685;-82
2022/07/17 02:24:59;;;;;;;3.20;2.90;;;14.70;99.90;;;;;;5027450;28;20630;-81
2022/07/17 02:27:26;;;;;;;4.17;3.77;;;14.60;99.90;;;;;;5024918;28;21203;-82
2022/07/17 02:29:54;;;;;;;3.43;3.23;;;14.70;99.90;;;;;;5024763;28;20663;-81
2022/07/17 02:32:21;;;;;;;4.60;4.07;;;14.60;99.90;;;;;;5027463;28;20623;-81
2022/07/17 02:34:48;;;;;;;3.87;3.53;;;14.70;99.90;;;;;;5026476;28;20702;-81
2022/07/17 02:37:14;;;;;;;4.10;3.70;;;14.60;99.90;;;;;;5028114;28;20623;-81
2022/07/17 02:39:52;;;;;;;3.97;3.67;;;14.60;99.90;;;;;;5027433;28;20647;-81
2022/07/17 02:42:20;;;;;;;4.13;3.37;;;14.50;99.90;;;;;;5028037;28;20677;-81
2022/07/17 02:44:47;;;;;;;4.13;3.70;;;14.40;99.90;;;;;;5025859;28;20631;-81
2022/07/17 02:47:22;;;;;;;4.60;3.83;;;14.40;99.90;;;;;;5028416;28;20623;-81
2022/07/17 02:49:49;;;;;;;5.80;3.80;;;14.40;99.90;;;;;;5028361;28;20658;-82
2022/07/17 02:52:16;;;;;;;4.20;3.80;;;14.30;99.90;;;;;;5028535;28;20952;-81
2022/07/17 02:54:42;;;;;;;4.73;4.13;;;14.30;99.90;;;;;;5027156;28;20630;-81
2022/07/17 02:57:09;;;;;;;4.20;3.90;;;14.20;99.90;;;;;;5026541;28;20627;-81
2022/07/17 02:59:36;;;;;;;4.43;4.13;;;14.20;99.90;;;;;;5023958;28;20669;-81
2022/07/17 03:02:03;;;;;;;4.40;4.10;;;14.10;99.90;;;;;;5024175;28;20639;-81
2022/07/17 03:04:31;;;;;;;4.00;3.70;;;14.10;99.90;;;;;;5025123;28;20656;-81
2022/07/17 03:06:58;;;;;;;9.30;4.90;;;14.10;99.90;;;;;;5028517;28;21045;-81
2022/07/17 03:09:25;;;;;;;4.97;4.47;;;14.00;99.90;;;;;;5027434;28;20641;-81
2022/07/17 03:11:52;;;;;;;4.33;3.93;;;14.00;99.90;;;;;;5026517;28;20638;-80
2022/07/17 03:14:18;;;;;;;5.17;4.70;;;13.90;99.90;;;;;;5025257;28;20629;-81
2022/07/17 03:16:45;;;;;;;4.77;4.47;;;13.90;99.90;;;;;;5027466;28;21035;-81
2022/07/17 03:19:12;;;;;;;4.87;4.47;;;13.90;99.90;;;;;;5027187;28;20638;-81
2022/07/17 03:21:40;;;;;;;7.13;4.60;;;13.90;99.90;;;;;;5024505;28;20634;-81
2022/07/17 03:24:07;;;;;;;6.77;4.00;;;13.80;99.90;;;;;;5026270;28;21026;-81
2022/07/17 03:26:34;;;;;;;6.23;5.10;;;13.80;99.90;;;;;;5027449;28;20713;-81
2022/07/17 03:29:00;;;;;;;4.40;4.00;;;13.80;99.90;;;;;;5027377;28;21237;-81
2022/07/17 03:31:27;;;;;;;5.67;4.70;;;13.70;99.90;;;;;;5024605;28;20817;-81
2022/07/17 03:33:54;;;;;;;4.00;3.80;;;13.70;99.90;;;;;;5022471;28;20658;-81
2022/07/17 03:36:21;;;;;;;5.23;4.83;;;13.60;99.90;;;;;;5026791;28;20630;-81
2022/07/17 03:38:49;;;;;;;4.60;4.20;;;13.60;99.90;;;;;;5029161;28;20717;-80
2022/07/17 03:41:16;;;;;;;4.67;4.33;;;13.60;99.90;;;;;;5021001;28;20656;-80
2022/07/17 03:43:43;;;;;;;4.67;4.37;;;13.50;99.90;;;;;;5022682;28;21059;-81
2022/07/17 03:46:10;;;;;;;4.77;4.47;;;13.50;99.90;;;;;;5017829;28;20642;-80
2022/07/17 03:48:38;;;;;;;5.20;4.80;;;13.40;99.90;;;;;;5020643;28;21113;-81
2022/07/17 03:51:05;;;;;;;5.50;5.10;;;13.40;99.90;;;;;;5024625;28;20709;-81
2022/07/17 03:53:31;;;;;;;5.43;4.60;;;13.40;99.90;;;;;;5026675;28;20627;-81
2022/07/17 03:55:59;;;;;;;4.93;4.60;;;13.40;99.90;;;;;;5028762;28;20631;-81
2022/07/17 03:58:27;;;;;;;5.27;4.77;;;13.30;99.90;;;;;;5026018;28;20661;-81
2022/07/17 04:00:54;;;;;;;5.13;4.73;;;13.30;99.90;;;;;;5024480;28;21358;-81
2022/07/17 04:03:21;;;;;;;4.77;4.00;;;13.30;99.90;;;;;;5025190;28;20805;-81
2022/07/17 04:05:48;;;;;;;5.30;4.73;;;13.30;99.90;;;;;;5019892;28;20637;-81
2022/07/17 04:08:15;;;;;;;4.90;4.50;;;13.30;99.90;;;;;;5024782;28;20623;-81
2022/07/17 04:10:42;;;;;;;4.40;4.00;;;13.40;99.90;;;;;;5031704;28;20660;-80
2022/07/17 04:13:10;;;;;;;4.90;4.50;;;13.40;99.90;;;;;;5033430;28;20619;-80
2022/07/17 04:15:56;;;;;;;5.40;4.90;;;13.40;99.90;;;;;;5022361;28;21000;-81
2022/07/17 04:18:25;;;;;;;5.17;4.60;;;13.40;99.90;;;;;;5024769;28;20626;-81
2022/07/17 04:20:53;;;;;;;5.70;4.17;;;13.30;99.90;;;;;;5028346;28;21079;-81
2022/07/17 04:23:19;;;;;;;4.37;4.10;;;13.30;99.90;;;;;;5029967;28;20666;-81
2022/07/17 04:25:46;;;;;;;4.87;4.47;;;13.40;99.90;;;;;;5029572;28;21319;-81
2022/07/17 04:28:15;;;;;;;4.83;4.43;;;13.40;99.90;;;;;;5027845;28;20639;-81
2022/07/17 04:30:42;;;;;;;5.33;4.93;;;13.40;99.90;;;;;;5028553;28;20676;-81
2022/07/17 04:33:09;;;;;;;5.40;4.90;;;13.50;99.90;;;;;;5024776;28;20689;-81
2022/07/17 04:35:36;;;;;;;4.87;4.47;;;13.50;99.90;;;;;;5028219;28;20634;-81
2022/07/17 04:38:05;;;;;;;5.27;3.93;;;13.50;99.90;;;;;;5029615;28;20843;-81
2022/07/17 04:40:32;;;;;;;4.33;3.97;;;13.50;99.90;;;;;;5029888;28;20635;-81
2022/07/17 04:42:59;;;;;;;4.80;4.43;;;13.50;99.90;;;;;;5024707;28;20666;-81
2022/07/17 04:45:28;;;;;;;4.23;3.93;;;13.60;99.90;;;;;;5022132;28;21260;-81
2022/07/17 04:47:55;;;;;;;5.17;4.33;;;13.60;99.90;;;;;;5029628;28;20702;-81
2022/07/17 04:50:22;;;;;;;4.67;4.27;;;13.70;99.90;;;;;;5029280;28;21262;-81
2022/07/17 04:52:49;;;;;;;4.83;4.53;;;13.70;99.90;;;;;;5027723;28;20623;-81
2022/07/17 04:55:16;;;;;;;5.13;4.43;;;13.80;99.90;;;;;;5028231;28;20637;-81
2022/07/17 04:57:44;;;;;;;4.87;4.50;;;13.90;99.90;;;;;;5024060;28;20664;-81
2022/07/17 05:00:13;;;;;;;4.70;4.20;;;13.90;99.90;;;;;;5026780;28;20661;-81
2022/07/17 05:02:41;;;;;;;4.53;4.17;;;13.90;99.90;;;;;;5026830;28;20627;-81
2022/07/17 05:05:08;;;;;;;4.80;4.43;;;14.00;99.90;;;;;;5028622;28;20701;-82
2022/07/17 05:07:35;;;;;;;4.77;4.37;;;14.00;99.90;;;;;;5027172;28;20727;-80
2022/07/17 05:10:03;;;;;;;4.70;4.40;;;14.10;99.90;;;;;;5026335;28;21098;-81
2022/07/17 05:12:31;;;;;;;4.60;4.20;;;14.20;99.90;;;;;;5028586;28;20657;-82
2022/07/17 05:14:58;;;;;;;5.00;4.50;;;14.30;99.90;;;;;;5027686;28;21281;-80
2022/07/17 05:17:25;;;;;;;5.43;4.93;;;14.40;99.90;;;;;;5025688;28;20658;-83
2022/07/17 05:19:53;;;;;;;5.20;4.70;;;14.50;99.90;;;;;;5026246;28;20782;-82
2022/07/17 05:22:20;;;;;;;5.70;5.10;;;14.60;99.90;;;;;;5027848;28;21162;-80
2022/07/17 05:24:47;;;;;;;5.37;4.87;;;14.70;99.90;;;;;;5026737;28;20659;-80
2022/07/17 05:27:13;;;;;;;5.07;4.43;;;14.80;99.90;;;;;;5014916;28;20640;-81
2022/07/17 05:29:40;;;;;;;5.30;4.90;;;14.90;99.90;;;;;;5023942;28;20695;-81
2022/07/17 05:32:07;;;;;;;5.60;5.00;;;15.00;99.90;;;;;;5023517;28;20634;-81
2022/07/17 05:34:34;;;;;;;5.33;4.87;;;15.20;99.90;;;;;;5023543;28;20745;-81
2022/07/17 05:37:02;;;;;;;5.80;5.40;;;15.30;99.90;;;;;;5018396;28;20746;-80
2022/07/17 05:39:29;;;;;;;5.57;4.97;;;15.40;99.90;;;;;;5012417;28;20638;-81
2022/07/17 05:41:55;;;;;;;5.17;4.77;;;15.40;99.90;;;;;;5010697;28;20651;-79
2022/07/17 05:44:22;;;;;;;6.30;4.90;;;15.50;99.90;;;;;;5023497;28;20680;-80
2022/07/17 05:46:49;;;;;;;5.37;4.87;;;15.60;99.90;;;;;;5027652;28;20648;-80
2022/07/17 05:49:16;;;;;;;5.03;4.63;;;15.80;99.90;;;;;;5024465;28;20627;-79
2022/07/17 05:51:42;;;;;;;5.67;5.17;;;15.90;99.90;;;;;;5023891;28;20720;-79
2022/07/17 05:54:10;;;;;;;4.47;4.17;;;16.00;99.90;;;;;;5025621;28;20646;-79
2022/07/17 05:56:37;;;;;;;5.73;5.13;;;16.10;99.90;;;;;;5027977;28;20631;-79
2022/07/17 05:59:04;;;;;;;5.10;4.67;;;16.10;99.90;;;;;;5021283;28;20846;-80
2022/07/17 06:01:31;;;;;;;8.07;5.70;;;16.20;99.90;;;;;;5026670;28;20720;-80
2022/07/17 06:03:58;;;;;;;5.10;4.70;;;16.30;99.90;;;;;;5025500;28;20670;-80
2022/07/17 06:06:24;;;;;;;4.77;4.47;;;16.50;99.90;;;;;;5027109;28;20634;-80
2022/07/17 06:08:51;;;;;;;5.00;4.60;;;16.60;99.90;;;;;;5025885;28;20634;-80
2022/07/17 06:11:19;;;;;;;7.30;5.00;;;16.70;99.90;;;;;;5022570;28;20627;-80
2022/07/17 06:13:46;;;;;;;6.53;4.83;;;16.80;99.90;;;;;;5026458;28;21182;-79
2022/07/17 06:16:13;;;;;;;5.43;5.03;;;16.90;99.90;;;;;;5036651;28;20615;-79
2022/07/17 06:18:41;;;;;;;5.23;4.73;;;17.00;99.90;;;;;;5028712;28;20646;-79
2022/07/17 06:21:08;;;;;;;4.97;4.47;;;17.10;99.90;;;;;;5024359;28;20688;-79
2022/07/17 06:23:38;;;;;;;4.50;4.20;;;17.30;99.90;;;;;;5033167;28;20658;-79
2022/07/17 06:26:06;;;;;;;4.67;4.30;;;17.30;99.90;;;;;;5027019;28;20653;-79
2022/07/17 06:28:36;;;;;;;5.43;4.93;;;17.40;99.90;;;;;;5027801;28;20623;-79
2022/07/17 06:31:03;;;;;;;3.90;3.60;;;17.50;99.90;;;;;;5023776;28;20646;-79
2022/07/17 06:33:30;;;;;;;4.67;4.27;;;17.70;99.90;;;;;;5025075;28;20631;-79
2022/07/17 06:35:58;;;;;;;4.13;3.83;;;17.80;99.90;;;;;;5026768;28;20661;-79
2022/07/17 06:38:24;;;;;;;4.80;4.40;;;17.90;99.90;;;;;;5027350;28;20629;-80
2022/07/17 06:40:51;;;;;;;5.10;3.70;;;18.10;99.90;;;;;;5026308;28;20615;-79
2022/07/17 06:43:19;;;;;;;6.00;3.20;;;18.10;99.90;;;;;;5024559;28;20625;-79
2022/07/17 06:45:47;;;;;;;3.77;3.47;;;18.20;99.90;;;;;;5026630;28;20662;-79
2022/07/17 06:48:15;;;;;;;3.93;3.60;;;18.40;99.90;;;;;;5026859;28;20634;-80
2022/07/17 06:50:42;;;;;;;3.43;3.13;;;18.50;99.90;;;;;;5028076;28;20622;-81
2022/07/17 06:53:09;;;;;;;3.57;3.27;;;18.70;99.90;;;;;;5027892;28;20627;-79
2022/07/17 06:55:35;;;;;;;4.33;3.63;;;18.80;99.90;;;;;;5027584;28;21270;-81
2022/07/17 06:58:02;;;;;;;3.73;3.33;;;18.90;99.90;;;;;;5027749;28;20623;-80
2022/07/17 07:00:29;;;;;;;3.57;3.17;;;19.10;99.90;;;;;;5024643;28;20631;-81
2022/07/17 07:02:58;;;;;;;3.30;3.00;;;19.20;99.90;;;;;;5024102;28;20729;-80
2022/07/17 07:05:25;;;;;;;3.40;3.10;;;19.30;99.90;;;;;;5019461;28;21258;-80
2022/07/17 07:07:51;;;;;;;3.40;3.10;;;19.40;99.90;;;;;;5023729;28;20645;-81
2022/07/17 07:10:19;;;;;;;4.60;3.77;;;19.40;99.90;;;;;;5025821;28;20641;-80
2022/07/17 07:12:46;;;;;;;4.20;3.80;;;19.60;99.90;;;;;;5026663;28;20635;-80
2022/07/17 07:15:14;;;;;;;3.77;3.47;;;19.70;99.90;;;;;;5025110;28;21125;-81
2022/07/17 07:17:41;;;;;;;4.37;4.07;;;19.80;99.90;;;;;;5022689;28;20630;-81
2022/07/17 07:20:11;;;;;;;4.13;3.67;;;20.00;99.90;;;;;;5026338;28;21189;-81
2022/07/17 07:22:38;;;;;;;4.37;4.03;;;20.10;99.90;;;;;;5024538;28;20649;-81
2022/07/17 07:25:05;;;;;;;5.17;3.70;;;20.10;99.90;;;;;;5022697;28;20679;-80
2022/07/17 07:27:32;;;;;;;3.37;3.00;;;20.20;99.90;;;;;;5026683;28;20635;-81
2022/07/17 07:29:59;;;;;;;4.00;3.30;;;20.30;99.80;;;;;;5017424;28;21216;-81
2022/07/17 07:32:26;;;;;;;4.53;3.50;;;20.40;99.40;;;;;;5024477;28;20634;-81
2022/07/17 07:34:54;;;;;;;4.00;3.00;;;20.50;99.00;;;;;;5026004;28;20665;-81
2022/07/17 07:37:22;;;;;;;2.70;2.50;;;20.50;97.70;;;;;;5026931;28;20661;-81
2022/07/17 07:39:49;;;;;;;2.90;2.70;;;20.70;97.80;;;;;;5026805;28;20627;-81
2022/07/17 07:42:16;;;;;;;4.40;3.10;;;20.70;97.60;;;;;;5026935;28;20626;-79
2022/07/17 07:44:43;;;;;;;3.17;2.97;;;20.90;98.00;;;;;;5021089;28;20679;-79
2022/07/17 07:47:09;;;;;;;2.80;2.60;;;21.00;98.00;;;;;;5024199;28;20631;-79
2022/07/17 07:49:36;;;;;;;3.10;2.67;;;21.10;97.80;;;;;;5022656;28;20658;-79
2022/07/17 07:52:03;;;;;;;4.03;2.37;;;21.30;97.40;;;;;;5024508;28;21227;-79
2022/07/17 07:54:32;;;;;;;2.33;2.17;;;21.40;96.40;;;;;;5022593;28;20658;-79
2022/07/17 07:56:59;;;;;;;2.20;2.00;;;21.50;94.90;;;;;;5025829;28;20705;-81
2022/07/17 07:59:27;;;;;;;2.50;2.30;;;21.70;94.30;;;;;;5026554;28;20642;-81
2022/07/17 08:01:53;;;;;;;2.47;2.27;;;21.80;93.50;;;;;;5026667;28;20627;-81
2022/07/17 08:04:20;;;;;;;2.60;2.40;;;21.90;92.70;;;;;;5025188;28;20750;-81
2022/07/17 08:06:47;;;;;;;2.60;2.40;;;22.00;92.60;;;;;;5026125;28;20626;-81
2022/07/17 08:09:15;;;;;;;2.60;2.40;;;22.10;93.00;;;;;;5026647;28;20645;-81
2022/07/17 08:11:44;;;;;;;3.07;2.30;;;22.20;92.20;;;;;;5023840;28;20674;-81
2022/07/17 08:14:11;;;;;;;3.60;2.47;;;22.30;92.20;;;;;;5025528;28;20745;-81
2022/07/17 08:16:38;;;;;;;4.40;2.90;;;22.40;92.10;;;;;;5025271;28;20669;-81
2022/07/17 08:19:06;;;;;;;3.40;2.57;;;22.60;91.90;;;;;;5026438;28;21070;-81
2022/07/17 08:21:33;;;;;;;2.00;1.80;;;22.70;91.40;;;;;;5023204;28;20634;-81
2022/07/17 08:23:59;;;;;;;2.67;2.47;;;22.80;91.70;;;;;;5026272;28;20765;-81
2022/07/17 08:26:26;;;;;;;2.57;2.37;;;22.90;91.40;;;;;;5026393;28;21002;-80
2022/07/17 08:28:55;;;;;;;2.27;2.10;;;22.90;89.60;;;;;;5026536;28;20685;-81
2022/07/17 08:31:21;;;;;;;3.77;2.03;;;23.00;90.10;;;;;;5020529;28;20640;-81
2022/07/17 08:33:48;;;;;;;2.53;2.33;;;23.10;90.20;;;;;;5021955;28;20649;-80
2022/07/17 08:36:15;;;;;;;2.70;2.50;;;23.10;88.90;;;;;;5023940;28;20995;-80
2022/07/17 08:38:42;;;;;;;4.30;2.60;;;23.10;88.40;;;;;;5025711;28;20642;-81
2022/07/17 08:41:10;;;;;;;2.00;1.90;;;23.20;89.90;;;;;;5024745;28;21357;-81
2022/07/17 08:43:37;;;;;;;4.83;2.67;;;23.40;89.60;;;;;;5022563;28;21046;-81
2022/07/17 08:46:06;;;;;;;3.10;2.90;;;23.40;86.40;;;;;;5025557;28;20674;-81
2022/07/17 08:48:33;;;;;;;1.93;1.83;;;23.50;86.50;;;;;;5026107;28;20635;-81
2022/07/17 08:51:00;;;;;;;4.53;2.60;;;23.70;86.30;;;;;;5022709;28;20991;-81
2022/07/17 08:53:27;;;;;;;3.13;2.60;;;23.80;86.50;;;;;;5020443;28;20757;-81
2022/07/17 08:55:54;;;;;;;3.57;2.20;;;23.80;85.00;;;;;;5026322;28;20666;-79
2022/07/17 08:58:21;;;;;;;2.37;2.17;;;23.90;84.70;;;;;;5024957;28;20619;-79
2022/07/17 09:00:49;;;;;;;3.27;1.73;;;24.00;84.20;;;;;;5025173;28;20635;-79
2022/07/17 09:03:18;;;;;;;3.20;2.20;;;24.10;84.10;;;;;;5023064;28;20704;-79
2022/07/17 09:05:46;;;;;;;4.03;2.57;;;24.20;83.00;;;;;;5021347;28;21303;-80
2022/07/17 09:08:18;;;;;;;2.30;2.10;;;24.30;82.50;;;;;;5024516;28;20642;-79
2022/07/17 09:10:47;;;;;;;2.83;2.33;;;24.40;81.40;;;;;;5028414;28;20654;-80
2022/07/17 09:13:18;;;;;;;1.97;1.87;;;24.50;80.00;;;;;;5045596;28;20637;-79
2022/07/17 09:15:45;;;;;;;3.57;2.17;;;24.60;76.70;;;;;;5029872;28;20658;-80
2022/07/17 09:18:15;;;;;;;1.90;1.80;;;24.70;77.60;;;;;;5029690;28;20681;-80
2022/07/17 09:20:49;;;;;;;1.40;1.30;;;24.80;78.00;;;;;;5026850;28;21376;-81
2022/07/17 09:23:17;;;;;;;2.13;1.93;;;24.90;75.60;;;;;;5022863;28;20718;-80
2022/07/17 09:25:47;;;;;;;1.70;1.60;;;24.90;76.60;;;;;;5022150;28;20697;-80
2022/07/17 09:28:15;;;;;;;2.80;2.10;;;25.00;76.60;;;;;;5024692;28;20712;-80
2022/07/17 09:30:44;;;;;;;2.20;1.93;;;25.00;74.70;;;;;;5027767;28;20638;-80
2022/07/17 09:33:14;;;;;;;2.73;1.80;;;24.90;73.30;;;;;;5024055;28;20636;-80
2022/07/17 09:35:51;;;;;;;2.63;1.67;;;24.80;72.90;;;;;;5025416;28;20666;-80
2022/07/17 09:38:31;;;;;;;5.23;2.00;;;24.90;73.70;;;;;;5028141;28;20630;-81
2022/07/17 09:41:12;;;;;;;1.90;1.80;;;24.90;71.80;;;;;;5021542;28;20642;-81
2022/07/17 09:43:42;;;;;;;1.83;1.50;;;25.00;71.60;;;;;;5029409;28;20627;-80
2022/07/17 09:46:10;;;;;;;2.17;2.07;;;25.10;73.20;;;;;;5025129;28;21216;-80
2022/07/17 09:48:42;;;;;;;3.30;2.07;;;25.20;73.60;;;;;;5026484;28;20730;-81
2022/07/17 09:51:11;;;;;;;2.80;2.10;;;25.30;73.30;;;;;;5027314;28;20650;-81
2022/07/17 09:53:39;;;;;;;2.17;1.83;;;25.50;72.40;;;;;;5027056;28;20631;-81
2022/07/17 09:56:07;;;;;;;2.10;1.73;;;25.50;69.20;;;;;;5022925;28;20630;-81
2022/07/17 09:58:40;;;;;;;2.13;1.93;;;25.50;68.30;;;;;;5024046;28;20654;-80
2022/07/17 10:01:09;;;;;;;1.80;1.70;;;25.40;68.60;;;;;;5026296;28;20631;-80
2022/07/17 10:03:37;;;;;;;3.40;1.80;;;25.40;69.00;;;;;;5026116;28;20669;-80
2022/07/17 10:06:04;;;;;;;1.97;1.60;;;25.50;69.90;;;;;;5025931;28;20712;-79
2022/07/17 10:08:33;;;;;;;2.13;1.93;;;25.60;68.80;;;;;;5025247;28;21063;-80
2022/07/17 10:11:01;;;;;;;1.90;1.80;;;25.70;69.50;;;;;;5020880;28;20630;-79
2022/07/17 10:13:29;;;;;;;2.37;1.70;;;25.80;66.30;;;;;;5023515;28;20637;-79
2022/07/17 10:15:56;;;;;;;1.57;1.47;;;25.70;65.20;;;;;;5019770;28;20646;-78
2022/07/17 10:18:34;;;;;;;2.33;2.03;;;25.60;64.60;;;;;;5024885;28;20663;-80
2022/07/17 10:21:07;;;;;;;3.53;1.73;;;25.70;64.30;;;;;;5022411;28;20626;-78
2022/07/17 10:23:36;;;;;;;2.50;2.30;;;25.70;64.90;;;;;;5011485;28;20638;-79
2022/07/17 10:26:03;;;;;;;1.77;1.67;;;25.70;65.00;;;;;;5024002;28;20663;-80
2022/07/17 10:28:43;;;;;;;2.33;1.67;;;25.70;65.20;;;;;;5026667;28;20631;-80
2022/07/17 10:31:10;;;;;;;1.70;1.60;;;25.90;60.30;;;;;;5024823;28;20627;-80
2022/07/17 10:33:39;;;;;;;2.23;2.13;;;25.90;58.20;;;;;;5025577;28;20626;-79
2022/07/17 10:36:07;;;;;;;1.67;1.43;;;26.00;59.10;;;;;;5027538;28;20623;-80
2022/07/17 10:38:43;;;;;;;1.63;1.53;;;26.10;58.10;;;;;;5027373;28;20656;-79
2022/07/17 10:41:21;;;;;;;2.50;1.73;;;26.20;57.90;;;;;;5021737;28;20647;-80
2022/07/17 10:43:50;;;;;;;2.30;2.03;;;26.40;58.70;;;;;;5025584;28;21161;-80
2022/07/17 10:46:16;;;;;;;1.80;1.70;;;26.60;60.30;;;;;;5026180;28;20666;-80
2022/07/17 10:48:48;;;;;;;1.80;1.67;;;26.90;61.90;;;;;;5025702;28;21414;-79
2022/07/17 10:51:16;;;;;;;2.07;1.80;;;27.00;59.40;;;;;;5026640;28;20623;-80
2022/07/17 10:53:44;;;;;;;2.33;1.90;;;27.30;59.80;;;;;;5025974;28;20753;-80
2022/07/17 10:56:13;;;;;;;2.10;2.00;;;27.30;58.90;;;;;;5023235;28;21208;-80
2022/07/17 10:58:41;;;;;;;1.87;1.77;;;27.40;57.90;;;;;;5023887;28;21023;-80
2022/07/17 11:01:10;;;;;;;2.03;1.93;;;27.40;58.30;;;;;;5024353;28;21204;-80
2022/07/17 11:03:40;;;;;;;2.50;1.97;;;27.50;58.80;;;;;;5025465;28;20742;-80
2022/07/17 11:06:09;;;;;;;1.80;1.70;;;27.70;58.30;;;;;;5024448;28;20666;-81
2022/07/17 11:08:41;;;;;;;3.37;2.00;;;27.90;57.70;;;;;;5026086;28;20655;-80
2022/07/17 11:11:09;;;;;;;1.90;1.80;;;28.10;58.30;;;;;;5026309;28;20629;-81
2022/07/17 11:13:36;;;;;;;1.87;1.77;;;28.40;58.20;;;;;;5024890;28;20987;-81
2022/07/17 11:16:03;;;;;;;4.53;2.30;;;28.60;57.60;;;;;;5025382;28;20619;-81
2022/07/17 11:18:34;;;;;;;2.60;2.40;;;28.90;56.80;;;;;;5026580;28;20672;-79
2022/07/17 11:21:03;;;;;;;3.67;2.40;;;29.20;55.50;;;;;;5018539;28;20734;-81
2022/07/17 11:23:33;;;;;;;2.80;2.20;;;29.30;54.30;;;;;;5025735;28;20638;-81
2022/07/17 11:26:02;;;;;;;2.53;1.90;;;29.50;54.00;;;;;;5025988;28;20666;-79
2022/07/17 11:28:41;;;;;;;2.13;1.93;;;29.70;52.60;;;;;;5026049;28;21066;-79
2022/07/17 11:31:19;;;;;;;2.10;1.90;;;29.90;53.40;;;;;;5025010;28;21199;-79
2022/07/17 11:33:53;;;;;;;2.40;1.90;;;30.20;53.10;;;;;;5022542;28;20634;-79
2022/07/17 11:36:25;;;;;;;2.23;1.90;;;30.50;52.30;;;;;;5027440;28;20626;-79
2022/07/17 11:38:52;;;;;;;2.07;1.80;;;30.70;50.20;;;;;;5023884;28;21268;-79
2022/07/17 11:41:20;;;;;;;2.60;1.83;;;30.80;48.70;;;;;;5030976;28;20622;-79
2022/07/17 11:43:48;;;;;;;2.90;2.00;;;30.80;49.20;;;;;;5023892;28;20638;-79
2022/07/17 11:46:16;;;;;;;3.20;2.10;;;31.10;49.70;;;;;;5024423;28;21189;-79
2022/07/17 11:48:44;;;;;;;2.20;2.00;;;31.50;50.60;;;;;;5029112;28;20724;-82
2022/07/17 11:51:11;;;;;;;1.67;1.57;;;31.80;48.50;;;;;;5027629;28;20611;-81
2022/07/17 11:53:40;;;;;;;2.33;2.03;;;31.80;48.00;;;;;;5026472;28;20630;-80
2022/07/17 11:56:08;;;;;;;2.03;1.93;;;32.00;48.10;;;;;;5022982;28;20627;-80
2022/07/17 11:58:45;;;;;;;2.13;2.03;;;32.40;47.10;;;;;;5022661;28;20753;-80
2022/07/17 12:01:14;;;;;;;2.33;2.17;;;32.60;46.10;;;;;;5024369;28;21180;-81
2022/07/17 12:03:41;;;;;;;1.77;1.67;;;32.90;45.60;;;;;;5016509;28;20651;-80
2022/07/17 12:06:09;;;;;;;2.57;1.70;;;33.10;43.50;;;;;;5026784;28;20677;-79
2022/07/17 12:08:37;;;;;;;2.13;2.03;;;33.20;43.70;;;;;;5023942;28;20666;-79
2022/07/17 12:11:06;;;;;;;2.20;2.10;;;33.30;43.90;;;;;;5025040;28;20630;-79
2022/07/17 12:13:42;;;;;;;1.80;1.70;;;33.60;43.70;;;;;;5025596;28;20621;-79
2022/07/17 12:16:29;;;;;;;1.90;1.80;;;33.90;43.10;;;;;;5023209;28;20645;-79
2022/07/17 12:18:57;;;;;;;5.23;2.30;;;34.00;41.30;;;;;;5023560;28;20633;-79
2022/07/17 12:21:25;;;;;;;2.50;1.73;;;34.00;41.30;;;;;;5026001;28;21122;-79
2022/07/17 12:24:00;;;;;;;1.80;1.70;;;34.10;40.50;;;;;;5024972;28;20630;-79
2022/07/17 12:26:27;;;;;;;2.00;1.90;;;34.00;39.90;;;;;;5025869;28;21039;-79
2022/07/17 12:28:55;;;;;;;2.10;2.00;;;34.10;40.00;;;;;;5026314;28;20636;-79
2022/07/17 12:31:24;;;;;;;2.20;2.10;;;34.30;39.80;;;;;;5026597;28;20728;-79
2022/07/17 12:33:53;;;;;;;2.10;2.00;;;34.50;39.60;;;;;;5022285;28;20618;-79
2022/07/17 12:36:20;;;;;;;2.40;2.20;;;34.50;39.30;;;;;;5026817;28;20755;-79
2022/07/17 12:38:47;;;;;;;3.80;2.13;;;34.50;39.60;;;;;;5026227;28;20658;-79
2022/07/17 12:41:14;;;;;;;2.00;1.90;;;34.80;40.00;;;;;;5025345;28;21248;-79
2022/07/17 12:43:41;;;;;;;2.03;1.93;;;35.20;40.00;;;;;;5025609;28;20688;-79
2022/07/17 12:46:08;;;;;;;3.20;1.70;;;35.40;39.00;;;;;;5034644;28;21297;-79
2022/07/17 12:48:38;;;;;;;2.33;2.00;;;35.70;37.70;;;;;;5031426;28;20625;-79
2022/07/17 12:51:07;;;;;;;1.87;1.73;;;36.00;38.00;;;;;;5030612;28;20673;-79